Time;durP1;ratioP1;P1;durP2;ratioP2;P2;SDS_P1;SDS_P2;PMS_P1;PMS_P2;Temp;Humidity;BMP_temperature;BMP_pressure;BME280_temperature;BME280_humidity;BME280_pressure;Samples;Min_cycle;Max_cycle;Signal;HPM_P1;HPM_P2
2022/03/03 00:00:14;;;;;;;23.17;14.13;;;;;;;3.13;66.92;99912.25;5027587;28;20512;-21
2022/03/03 00:02:40;;;;;;;24.88;13.63;;;;;;;3.26;66.96;99915.09;5009506;28;20195;-21
2022/03/03 00:05:06;;;;;;;22.98;12.35;;;;;;;3.37;66.61;99913.88;5027161;28;20021;-20
2022/03/03 00:07:31;;;;;;;21.90;13.18;;;;;;;3.36;66.41;99917.53;5027273;28;20021;-21
2022/03/03 00:09:57;;;;;;;21.85;13.38;;;;;;;3.32;66.53;99916.22;5027557;28;20037;-20
2022/03/03 00:12:22;;;;;;;20.60;12.10;;;;;;;3.22;66.71;99901.44;5009397;28;20049;-20
2022/03/03 00:14:47;;;;;;;22.50;13.27;;;;;;;3.45;67.14;99916.44;5028515;28;20485;-21
2022/03/03 00:17:13;;;;;;;21.92;13.90;;;;;;;3.43;66.54;99897.34;5030747;28;20036;-21
2022/03/03 00:19:38;;;;;;;24.90;14.63;;;;;;;3.36;66.11;99909.63;5013378;28;20029;-20
2022/03/03 00:22:04;;;;;;;22.15;13.27;;;;;;;3.12;67.81;99906.13;5030732;28;20033;-20
2022/03/03 00:24:30;;;;;;;23.27;14.10;;;;;;;3.27;66.21;99910.66;5029526;28;20413;-20
2022/03/03 00:26:55;;;;;;;23.85;14.48;;;;;;;3.06;66.57;99903.38;5030656;28;20403;-20
2022/03/03 00:29:21;;;;;;;23.15;13.85;;;;;;;3.13;65.04;99897.25;5030665;28;20033;-20
2022/03/03 00:31:46;;;;;;;23.13;14.93;;;;;;;2.93;65.07;99902.13;5012539;28;20599;-22
2022/03/03 00:34:13;;;;;;;24.05;13.55;;;;;;;2.89;65.37;99897.38;5013024;28;20498;-20
2022/03/03 00:36:39;;;;;;;28.58;14.75;;;;;;;2.81;65.73;99888.53;5030681;28;20032;-20
2022/03/03 00:39:05;;;;;;;23.73;14.20;;;;;;;2.87;65.46;99891.47;5030283;28;20030;-20
2022/03/03 00:41:30;;;;;;;24.05;14.02;;;;;;;2.96;64.98;99893.06;5030626;28;20045;-20
2022/03/03 00:43:56;;;;;;;22.85;13.95;;;;;;;3.02;65.00;99892.34;5030292;28;20421;-21
2022/03/03 00:46:21;;;;;;;29.15;14.75;;;;;;;3.10;64.01;99875.69;5030007;28;20033;-20
2022/03/03 00:48:47;;;;;;;25.25;14.82;;;;;;;3.04;64.39;99892.19;5030569;28;20034;-22
2022/03/03 00:51:12;;;;;;;24.83;14.25;;;;;;;3.23;64.33;99891.75;5030459;28;20040;-20
2022/03/03 00:53:38;;;;;;;24.40;14.27;;;;;;;2.92;63.70;99866.25;5030322;28;20037;-20
2022/03/03 00:56:04;;;;;;;23.30;13.73;;;;;;;3.19;63.53;99890.47;5030411;28;20792;-21
2022/03/03 00:58:29;;;;;;;25.77;13.90;;;;;;;3.15;64.13;99883.91;5012538;28;20065;-19
2022/03/03 01:00:55;;;;;;;23.20;14.52;;;;;;;3.56;64.23;99881.78;5028250;28;20044;-21
2022/03/03 01:03:21;;;;;;;25.90;14.38;;;;;;;3.47;63.27;99882.81;5030150;28;20029;-20
2022/03/03 01:05:46;;;;;;;23.73;14.30;;;;;;;3.36;62.26;99883.25;5028641;28;20041;-20
2022/03/03 01:08:12;;;;;;;23.80;14.00;;;;;;;3.20;62.72;99887.63;5030168;28;20022;-20
2022/03/03 01:10:38;;;;;;;25.15;13.20;;;;;;;2.97;63.33;99873.63;5029894;28;20041;-20
2022/03/03 01:13:04;;;;;;;21.75;13.40;;;;;;;2.98;63.58;99888.44;5028344;28;20440;-21
2022/03/03 01:15:29;;;;;;;22.85;12.95;;;;;;;2.87;63.14;99876.47;5011825;28;20087;-20
2022/03/03 01:17:56;;;;;;;25.63;13.88;;;;;;;2.80;63.85;99889.53;5028614;28;20053;-20
2022/03/03 01:20:22;;;;;;;25.75;15.60;;;;;;;3.10;63.42;99881.78;5029766;28;20044;-21
2022/03/03 01:22:47;;;;;;;22.77;14.05;;;;;;;3.10;62.74;99881.78;5029710;28;20049;-22
2022/03/03 01:25:13;;;;;;;24.17;14.15;;;;;;;2.83;63.73;99874.38;5029362;28;20034;-20
2022/03/03 01:27:38;;;;;;;24.27;13.88;;;;;;;2.71;64.10;99869.47;5029464;28;20029;-21
2022/03/03 01:30:07;;;;;;;25.02;14.48;;;;;;;2.32;64.49;99804.53;5011480;28;20030;-21
2022/03/03 01:32:33;;;;;;;25.00;13.52;;;;;;;2.71;63.79;99874.75;5011762;28;20521;-20
2022/03/03 01:34:59;;;;;;;22.52;13.75;;;;;;;2.73;63.88;99875.41;5029360;28;20040;-22
2022/03/03 01:37:24;;;;;;;20.92;13.90;;;;;;;2.63;64.39;99872.16;5029472;28;20022;-20
2022/03/03 01:39:49;;;;;;;25.48;14.80;;;;;;;2.78;64.33;99867.81;5029444;28;20087;-20
2022/03/03 01:42:15;;;;;;;24.10;14.25;;;;;;;2.65;63.94;99840.41;5029469;28;20034;-20
2022/03/03 01:44:42;;;;;;;22.50;13.75;;;;;;;2.73;63.62;99838.53;5029084;28;20539;-20
2022/03/03 01:47:19;;;;;;;21.98;13.50;;;;;;;2.71;63.81;99845.78;5029094;28;20037;-20
2022/03/03 01:49:45;;;;;;;22.13;13.30;;;;;;;2.67;63.71;99833.97;5028041;28;20025;-20
2022/03/03 01:52:10;;;;;;;19.48;12.25;;;;;;;2.72;63.45;99857.97;5028005;28;20033;-20
2022/03/03 01:54:36;;;;;;;22.40;14.80;;;;;;;2.78;63.74;99857.28;5011221;28;20040;-20
2022/03/03 01:57:01;;;;;;;22.52;12.75;;;;;;;2.63;63.84;99851.09;5028581;28;20030;-21
2022/03/03 01:59:27;;;;;;;20.13;11.15;;;;;;;2.59;63.79;99862.97;5011071;28;20041;-21
2022/03/03 02:01:52;;;;;;;22.23;13.68;;;;;;;2.75;63.67;99857.63;5029089;28;20076;-26
2022/03/03 02:04:18;;;;;;;24.77;13.10;;;;;;;2.80;63.62;99865.00;4995020;28;20029;-20
2022/03/03 02:06:43;;;;;;;23.05;13.60;;;;;;;2.74;64.03;99877.06;5028812;28;20029;-20
2022/03/03 02:09:09;;;;;;;22.63;12.82;;;;;;;2.76;63.82;99859.25;5028680;28;20362;-21
2022/03/03 02:11:34;;;;;;;21.05;12.80;;;;;;;2.90;63.10;99880.56;5027132;28;20041;-22
2022/03/03 02:14:02;;;;;;;21.35;12.50;;;;;;;3.00;63.14;99881.16;5028970;28;20049;-20
2022/03/03 02:16:27;;;;;;;21.98;13.45;;;;;;;3.00;63.16;99875.91;5028576;28;20082;-20
2022/03/03 02:18:53;;;;;;;21.42;13.38;;;;;;;2.84;62.94;99879.47;5010904;28;20041;-21
2022/03/03 02:21:18;;;;;;;20.25;12.63;;;;;;;2.99;62.68;99874.28;5011184;28;20033;-20
2022/03/03 02:23:44;;;;;;;19.98;12.73;;;;;;;3.06;61.97;99891.00;5028693;28;20040;-20
2022/03/03 02:26:12;;;;;;;20.67;13.30;;;;;;;3.01;62.00;99888.09;5028719;28;20029;-20
2022/03/03 02:28:39;;;;;;;21.77;13.15;;;;;;;3.15;61.47;99883.91;5028578;28;20124;-20
2022/03/03 02:31:04;;;;;;;21.45;13.35;;;;;;;3.25;61.97;99878.38;5028189;28;20065;-20
2022/03/03 02:33:30;;;;;;;21.08;13.43;;;;;;;3.24;62.41;99874.13;5028613;28;20470;-21
2022/03/03 02:35:55;;;;;;;23.05;12.98;;;;;;;3.19;62.32;99853.56;5028398;28;20075;-21
2022/03/03 02:38:21;;;;;;;20.35;12.50;;;;;;;3.36;61.27;99862.16;5027672;28;20037;-20
2022/03/03 02:40:46;;;;;;;21.45;13.60;;;;;;;3.39;61.82;99869.69;5010444;28;20509;-21
2022/03/03 02:43:12;;;;;;;22.40;12.98;;;;;;;3.19;63.14;99858.84;5028276;28;20037;-20
2022/03/03 02:45:37;;;;;;;20.77;13.00;;;;;;;3.26;63.17;99861.59;5028231;28;20048;-19
2022/03/03 02:48:03;;;;;;;23.60;13.48;;;;;;;3.30;63.40;99849.69;5028297;28;20030;-21
2022/03/03 02:50:29;;;;;;;21.65;12.68;;;;;;;3.28;62.75;99864.88;5028030;28;20413;-20
2022/03/03 02:52:57;;;;;;;21.52;13.15;;;;;;;3.19;64.29;99857.00;5027891;28;20033;-20
2022/03/03 02:55:22;;;;;;;22.25;13.02;;;;;;;3.29;64.56;99858.59;5027909;28;20029;-22
2022/03/03 02:57:56;;;;;;;21.30;14.20;;;;;;;3.37;64.05;99856.72;5028126;28;20039;-19
2022/03/03 03:00:35;;;;;;;21.95;13.77;;;;;;;3.21;65.36;99862.94;5028008;28;20056;-20
2022/03/03 03:03:01;;;;;;;22.02;13.77;;;;;;;2.97;65.35;99860.47;5027858;28;20128;-20
2022/03/03 03:05:26;;;;;;;21.77;13.73;;;;;;;2.95;64.53;99851.91;5028075;28;20044;-20
2022/03/03 03:07:52;;;;;;;22.10;13.27;;;;;;;2.79;63.54;99852.81;5027698;28;20033;-21
2022/03/03 03:10:17;;;;;;;21.35;13.13;;;;;;;2.84;63.48;99850.50;5027963;28;20038;-20
2022/03/03 03:12:43;;;;;;;19.10;11.65;;;;;;;2.74;62.94;99849.91;5027790;28;20136;-20
2022/03/03 03:15:08;;;;;;;20.73;13.23;;;;;;;2.81;62.82;99845.56;5027894;28;20033;-20
2022/03/03 03:17:34;;;;;;;19.88;12.20;;;;;;;2.87;63.38;99863.31;5009728;28;20037;-20
2022/03/03 03:19:59;;;;;;;19.58;13.25;;;;;;;2.97;63.41;99858.63;5027736;28;20030;-21
2022/03/03 03:22:25;;;;;;;19.63;13.20;;;;;;;2.91;62.63;99833.00;5027498;28;20041;-20
2022/03/03 03:24:50;;;;;;;21.17;13.25;;;;;;;3.22;62.10;99854.00;5027629;28;20029;-20
2022/03/03 03:27:15;;;;;;;21.48;12.18;;;;;;;3.30;61.94;99855.78;5027643;28;20501;-21
2022/03/03 03:29:41;;;;;;;22.42;13.55;;;;;;;3.63;61.84;99864.22;5026415;28;20095;-20
2022/03/03 03:32:06;;;;;;;19.17;12.55;;;;;;;3.48;60.26;99862.56;5027571;28;20048;-22
2022/03/03 03:34:32;;;;;;;20.17;12.35;;;;;;;3.57;60.64;99862.31;5027496;28;20040;-21
2022/03/03 03:36:57;;;;;;;22.70;12.68;;;;;;;3.67;61.10;99854.16;5027267;28;20432;-20
2022/03/03 03:39:23;;;;;;;22.65;14.25;;;;;;;3.72;62.34;99858.88;5027366;28;20033;-20
2022/03/03 03:41:48;;;;;;;23.20;15.05;;;;;;;3.78;61.63;99858.16;5027659;28;20033;-21
2022/03/03 03:44:14;;;;;;;23.05;14.35;;;;;;;3.80;61.49;99866.72;5027894;28;20037;-20
2022/03/03 03:46:39;;;;;;;19.65;11.77;;;;;;;3.59;60.50;99854.22;5026465;28;20039;-20
2022/03/03 03:49:05;;;;;;;17.08;10.85;;;;;;;3.39;60.76;99844.19;5029258;28;20037;-20
2022/03/03 03:51:31;;;;;;;16.95;11.32;;;;;;;3.32;61.43;99848.50;5031248;28;20037;-23
2022/03/03 03:53:57;;;;;;;21.80;12.50;;;;;;;3.52;61.05;99851.47;5031258;28;20044;-20
2022/03/03 03:56:22;;;;;;;17.70;11.57;;;;;;;3.55;60.11;99859.03;5013711;28;20049;-20
2022/03/03 03:58:49;;;;;;;19.95;11.75;;;;;;;3.36;60.98;99839.25;5031486;28;20041;-21
2022/03/03 04:01:14;;;;;;;20.63;12.40;;;;;;;3.37;61.49;99850.59;5031362;28;20061;-20
2022/03/03 04:03:40;;;;;;;21.40;12.35;;;;;;;3.46;61.40;99854.03;5031188;28;20428;-21
2022/03/03 04:06:05;;;;;;;18.52;11.05;;;;;;;3.26;60.99;99853.69;5031007;28;20071;-20
2022/03/03 04:08:31;;;;;;;18.98;12.23;;;;;;;3.16;61.67;99838.09;5013488;28;20033;-21
2022/03/03 04:10:57;;;;;;;20.17;12.45;;;;;;;3.45;61.24;99853.19;5030805;28;20036;-20
2022/03/03 04:13:22;;;;;;;21.27;12.07;;;;;;;3.40;62.10;99858.19;5031055;28;20061;-20
2022/03/03 04:15:48;;;;;;;21.67;12.95;;;;;;;3.49;61.53;99849.19;5031148;28;20044;-20
2022/03/03 04:18:13;;;;;;;21.55;12.38;;;;;;;3.66;61.63;99864.88;5029673;28;20037;-21
2022/03/03 04:20:39;;;;;;;20.75;13.05;;;;;;;3.39;61.75;99838.06;5029453;28;20679;-20
2022/03/03 04:23:05;;;;;;;20.08;12.98;;;;;;;3.65;61.40;99871.97;5030438;28;20037;-20
2022/03/03 04:25:30;;;;;;;19.15;12.30;;;;;;;3.78;62.13;99863.44;5030833;28;20497;-20
2022/03/03 04:27:56;;;;;;;21.55;12.77;;;;;;;3.65;61.60;99858.78;5030777;28;20618;-20
2022/03/03 04:30:21;;;;;;;22.05;13.45;;;;;;;3.51;62.75;99857.75;5030709;28;20406;-20
2022/03/03 04:32:46;;;;;;;19.60;12.57;;;;;;;3.56;62.38;99828.22;5030339;28;20033;-22
2022/03/03 04:35:12;;;;;;;18.85;12.48;;;;;;;3.80;62.61;99850.88;5030558;28;20088;-20
2022/03/03 04:37:39;;;;;;;23.67;12.85;;;;;;;3.74;62.28;99851.59;5012488;28;20034;-20
2022/03/03 04:40:05;;;;;;;21.20;12.77;;;;;;;3.33;63.70;99830.88;5012937;28;20068;-20
2022/03/03 04:42:31;;;;;;;19.52;12.38;;;;;;;3.31;63.87;99841.63;5030660;28;20032;-20
2022/03/03 04:44:56;;;;;;;18.60;11.48;;;;;;;3.12;62.81;99842.06;5030251;28;20033;-20
2022/03/03 04:47:21;;;;;;;23.67;14.38;;;;;;;3.18;64.87;99846.66;5030620;28;20036;-20
2022/03/03 04:49:47;;;;;;;19.60;12.35;;;;;;;3.18;63.41;99836.91;5030349;28;20025;-21
2022/03/03 04:52:12;;;;;;;19.80;11.82;;;;;;;3.10;62.78;99850.16;5030256;28;20745;-21
2022/03/03 04:54:38;;;;;;;20.15;11.70;;;;;;;3.19;63.52;99854.38;5030333;28;20095;-19
2022/03/03 04:57:03;;;;;;;19.65;12.38;;;;;;;3.34;61.24;99850.97;5030394;28;20476;-21
2022/03/03 04:59:29;;;;;;;20.55;11.63;;;;;;;3.15;61.59;99842.56;5029724;28;20040;-20
2022/03/03 05:01:54;;;;;;;16.50;10.75;;;;;;;3.12;60.76;99831.53;5029572;28;20029;-20
2022/03/03 05:04:20;;;;;;;17.33;10.77;;;;;;;2.99;62.17;99847.94;5030151;28;20531;-20
2022/03/03 05:06:46;;;;;;;19.30;10.25;;;;;;;2.68;62.05;99813.75;5011948;28;20087;-21
2022/03/03 05:09:12;;;;;;;19.73;11.35;;;;;;;2.94;61.79;99837.94;4995887;28;20033;-21
2022/03/03 05:11:37;;;;;;;19.75;10.32;;;;;;;3.07;61.09;99845.25;5011859;28;20107;-20
2022/03/03 05:14:02;;;;;;;18.25;10.90;;;;;;;3.00;61.96;99844.28;5028763;28;20037;-20
2022/03/03 05:16:28;;;;;;;18.88;10.90;;;;;;;2.92;61.97;99845.19;5029738;28;20038;-21
2022/03/03 05:18:53;;;;;;;15.75;9.68;;;;;;;2.87;61.90;99844.06;5029637;28;20040;-20
2022/03/03 05:21:19;;;;;;;17.85;11.05;;;;;;;2.98;61.75;99846.28;5030086;28;20067;-21
2022/03/03 05:23:45;;;;;;;18.67;11.23;;;;;;;2.86;61.70;99823.97;5029939;28;20029;-20
2022/03/03 05:26:10;;;;;;;18.33;10.68;;;;;;;3.03;61.81;99843.97;5029936;28;20037;-20
2022/03/03 05:28:35;;;;;;;18.67;11.45;;;;;;;3.09;61.54;99848.53;5029868;28;20055;-20
2022/03/03 05:31:01;;;;;;;18.25;10.80;;;;;;;2.93;61.64;99844.19;5029458;28;20033;-20
2022/03/03 05:33:27;;;;;;;18.25;10.55;;;;;;;2.92;61.06;99857.50;5011676;28;20077;-20
2022/03/03 05:35:57;;;;;;;19.27;11.98;;;;;;;2.96;61.84;99837.72;5029622;28;20037;-21
2022/03/03 05:38:23;;;;;;;20.35;11.02;;;;;;;3.22;61.05;99859.28;5029375;28;20033;-21
2022/03/03 05:40:48;;;;;;;21.40;12.90;;;;;;;3.07;61.69;99839.16;5011328;28;20037;-20
2022/03/03 05:43:14;;;;;;;19.73;11.23;;;;;;;3.25;61.44;99862.56;5028157;28;20099;-20
2022/03/03 05:45:40;;;;;;;17.70;11.55;;;;;;;3.01;61.36;99854.66;5029433;28;20037;-20
2022/03/03 05:48:07;;;;;;;18.80;10.50;;;;;;;3.05;62.32;99863.03;5029417;28;20048;-20
2022/03/03 05:50:33;;;;;;;18.25;12.00;;;;;;;3.11;61.52;99867.63;5011373;28;20078;-21
2022/03/03 05:52:59;;;;;;;19.17;11.77;;;;;;;3.15;61.57;99865.47;5011314;28;20103;-21
2022/03/03 05:55:25;;;;;;;18.52;11.02;;;;;;;2.92;61.38;99841.72;5029275;28;20043;-20
2022/03/03 05:57:52;;;;;;;13.23;9.05;;;;;;;3.05;61.83;99860.41;5029090;28;20124;-20
2022/03/03 06:00:17;;;;;;;20.80;12.13;;;;;;;3.19;61.59;99859.66;5011237;28;20464;-21
2022/03/03 06:02:53;;;;;;;18.92;12.60;;;;;;;3.25;61.63;99859.94;5029082;28;20030;-20
2022/03/03 06:05:20;;;;;;;20.17;12.55;;;;;;;3.45;61.28;99858.44;5029016;28;20037;-22
2022/03/03 06:07:51;;;;;;;17.58;11.43;;;;;;;3.60;60.64;99867.22;5027747;28;20021;-20
2022/03/03 06:10:21;;;;;;;19.52;11.88;;;;;;;3.47;61.76;99866.19;5028986;28;20064;-20
2022/03/03 06:12:47;;;;;;;18.88;12.10;;;;;;;3.57;60.61;99867.56;5027403;28;20425;-21
2022/03/03 06:15:13;;;;;;;22.92;12.82;;;;;;;3.75;60.58;99874.34;5010933;28;20029;-20
2022/03/03 06:17:40;;;;;;;21.15;13.05;;;;;;;3.74;60.31;99859.50;5010868;28;20059;-20
2022/03/03 06:20:06;;;;;;;21.60;12.13;;;;;;;4.14;59.33;99883.88;5010957;28;20037;-22
2022/03/03 06:22:31;;;;;;;21.70;13.02;;;;;;;4.28;59.44;99883.03;5010617;28;20025;-21
2022/03/03 06:24:57;;;;;;;22.85;13.73;;;;;;;4.14;59.90;99881.22;5010694;28;20033;-20
2022/03/03 06:27:22;;;;;;;19.05;11.63;;;;;;;3.98;59.06;99874.28;5028194;28;20545;-21
2022/03/03 06:29:48;;;;;;;21.23;11.25;;;;;;;4.04;60.04;99873.56;5010765;28;20048;-20
2022/03/03 06:32:13;;;;;;;18.25;11.57;;;;;;;3.85;59.63;99872.28;5028096;28;20638;-20
2022/03/03 06:34:39;;;;;;;22.27;13.25;;;;;;;3.65;60.22;99850.88;5028658;28;20040;-20
2022/03/03 06:37:05;;;;;;;21.00;12.15;;;;;;;4.10;58.29;99857.00;5028380;28;20417;-22
2022/03/03 06:39:30;;;;;;;19.75;13.27;;;;;;;4.18;59.52;99880.66;5028607;28;20033;-20
2022/03/03 06:41:55;;;;;;;19.95;12.07;;;;;;;3.94;60.00;99878.28;5010680;28;20064;-21
2022/03/03 06:44:21;;;;;;;20.55;12.50;;;;;;;3.94;59.79;99894.13;5028026;28;20040;-20
2022/03/03 06:46:47;;;;;;;21.35;12.80;;;;;;;3.83;61.45;99884.84;5027784;28;20030;-20
2022/03/03 06:49:12;;;;;;;19.48;12.70;;;;;;;3.83;60.25;99877.72;5028056;28;20029;-20
2022/03/03 06:51:47;;;;;;;21.50;12.45;;;;;;;3.89;60.85;99889.38;5028259;28;20501;-20
2022/03/03 06:54:20;;;;;;;22.67;13.60;;;;;;;3.92;60.18;99899.56;5010604;28;20036;-21
2022/03/03 06:56:48;;;;;;;23.60;13.65;;;;;;;4.02;60.56;99892.25;5026844;28;20034;-20
2022/03/03 06:59:15;;;;;;;22.30;13.98;;;;;;;4.14;59.63;99883.88;5027786;28;20120;-20
2022/03/03 07:01:41;;;;;;;21.67;14.63;;;;;;;4.02;60.46;99886.97;5027907;28;20507;-21
2022/03/03 07:04:08;;;;;;;23.58;14.98;;;;;;;4.30;59.24;99910.09;5026860;28;20033;-21
2022/03/03 07:06:34;;;;;;;25.25;13.50;;;;;;;4.18;60.26;99895.69;5027963;28;20040;-20
2022/03/03 07:08:59;;;;;;;21.70;14.25;;;;;;;4.16;60.19;99902.97;5027642;28;20029;-21
2022/03/03 07:11:25;;;;;;;22.10;13.05;;;;;;;4.07;60.37;99910.16;4993617;28;20386;-21
2022/03/03 07:13:50;;;;;;;21.23;13.32;;;;;;;4.20;60.52;99909.53;5010210;28;20080;-20
2022/03/03 07:16:26;;;;;;;21.40;13.68;;;;;;;4.30;59.90;99878.41;5027715;28;20033;-21
2022/03/03 07:18:52;;;;;;;27.20;15.85;;;;;;;4.29;60.24;99878.59;5009803;28;20037;-21
2022/03/03 07:21:48;;;;;;;20.67;11.15;;;;;;;4.40;59.39;99915.91;5027599;28;20563;-21
2022/03/03 07:24:24;;;;;;;22.15;13.82;;;;;;;4.15;59.18;99890.78;5026393;28;20068;-20
2022/03/03 07:26:49;;;;;;;20.27;11.85;;;;;;;4.19;58.33;99907.91;5008759;28;20033;-20
2022/03/03 07:29:16;;;;;;;22.10;13.60;;;;;;;4.14;59.40;99889.16;5027221;28;20029;-20
2022/03/03 07:31:49;;;;;;;18.15;10.60;;;;;;;4.35;58.83;99906.88;5027176;28;20040;-20
2022/03/03 07:34:16;;;;;;;18.85;12.00;;;;;;;4.45;58.99;99911.91;5017387;28;20033;-22
2022/03/03 07:36:42;;;;;;;21.83;12.38;;;;;;;4.57;59.38;99907.81;5018485;28;20038;-20
2022/03/03 07:39:10;;;;;;;23.02;13.57;;;;;;;4.57;58.44;99905.16;4998469;28;20033;-21
2022/03/03 07:41:35;;;;;;;24.05;14.45;;;;;;;4.93;59.23;99904.38;4977056;28;20033;-21
2022/03/03 07:44:01;;;;;;;19.45;13.30;;;;;;;4.91;58.50;99909.03;5027764;28;20037;-21
2022/03/03 07:46:27;;;;;;;21.90;15.32;;;;;;;4.98;58.81;99902.81;5027304;28;20029;-20
2022/03/03 07:48:53;;;;;;;19.60;12.32;;;;;;;4.77;59.06;99900.94;5009416;28;20116;-21
2022/03/03 07:51:19;;;;;;;20.48;12.95;;;;;;;4.62;58.17;99876.38;5009282;28;20029;-20
2022/03/03 07:53:45;;;;;;;17.25;11.43;;;;;;;4.42;59.53;99919.19;5009717;28;20465;-21
2022/03/03 07:56:14;;;;;;;20.10;13.20;;;;;;;4.49;60.38;99886.78;5027205;28;20110;-22
2022/03/03 07:58:44;;;;;;;24.13;13.63;;;;;;;4.78;60.32;99897.31;5009467;28;20515;-20
2022/03/03 08:01:10;;;;;;;21.60;14.45;;;;;;;5.11;59.34;99898.66;5009088;28;20056;-21
2022/03/03 08:03:35;;;;;;;20.55;13.70;;;;;;;5.06;59.38;99907.16;5009201;28;20033;-21
2022/03/03 08:06:00;;;;;;;22.38;13.48;;;;;;;5.38;58.82;99897.13;5009487;28;20033;-21
2022/03/03 08:08:27;;;;;;;23.95;14.63;;;;;;;5.34;59.86;99874.72;5025643;28;20034;-21
2022/03/03 08:11:03;;;;;;;21.52;13.07;;;;;;;5.13;59.24;99894.84;5026842;28;20025;-21
2022/03/03 08:13:29;;;;;;;21.42;13.45;;;;;;;4.95;60.40;99902.38;5009096;28;20057;-20
2022/03/03 08:15:54;;;;;;;20.35;14.57;;;;;;;4.96;60.75;99899.53;5025822;28;20036;-21
2022/03/03 08:18:20;;;;;;;19.80;13.73;;;;;;;4.70;60.60;99900.06;5026554;28;20061;-20
2022/03/03 08:20:45;;;;;;;23.67;15.02;;;;;;;4.77;61.87;99900.94;5027206;28;20044;-21
2022/03/03 08:23:11;;;;;;;26.25;16.13;;;;;;;5.05;60.83;99889.69;5009109;28;20037;-20
2022/03/03 08:25:36;;;;;;;23.48;15.82;;;;;;;5.08;60.90;99894.56;5026807;28;20030;-21
2022/03/03 08:28:03;;;;;;;23.20;14.52;;;;;;;4.81;60.76;99881.06;5026884;28;20037;-21
2022/03/03 08:30:28;;;;;;;23.20;13.05;;;;;;;4.92;61.67;99902.72;5025327;28;20079;-20
2022/03/03 08:33:08;;;;;;;19.20;11.77;;;;;;;4.86;61.19;99908.75;5008941;28;20045;-21
2022/03/03 08:35:36;;;;;;;18.58;11.57;;;;;;;4.89;60.44;99898.66;5010458;28;20032;-20
2022/03/03 08:38:02;;;;;;;20.33;11.68;;;;;;;4.92;60.43;99910.66;5030799;28;20128;-20
2022/03/03 08:40:27;;;;;;;26.08;15.02;;;;;;;5.16;60.93;99902.38;5029944;28;20100;-21
2022/03/03 08:42:56;;;;;;;21.83;12.52;;;;;;;5.20;61.50;99900.19;5014142;28;20036;-21
2022/03/03 08:45:22;;;;;;;;;;;;;;;5.24;60.99;99896.97;5013269;28;20057;-21
2022/03/03 08:47:58;;;;;;;20.13;13.50;;;;;;;5.30;60.84;99884.03;5030513;28;19921;-21
2022/03/03 08:50:25;;;;;;;18.27;12.13;;;;;;;5.40;59.54;99895.13;5012978;28;20087;-20
2022/03/03 08:52:52;;;;;;;20.50;14.07;;;;;;;5.63;60.91;99892.25;5030532;28;20032;-20
2022/03/03 08:55:17;;;;;;;17.52;10.68;;;;;;;5.63;59.65;99892.25;5012310;28;20791;-21
2022/03/03 08:57:43;;;;;;;16.52;10.20;;;;;;;5.87;58.24;99909.56;5030178;28;20025;-21
2022/03/03 09:00:10;;;;;;;20.05;11.40;;;;;;;5.63;59.09;99895.72;5012236;28;20555;-22
2022/03/03 09:02:36;;;;;;;19.73;12.65;;;;;;;5.72;59.97;99900.88;5030181;28;20021;-30
2022/03/03 09:05:02;;;;;;;18.27;11.90;;;;;;;5.79;58.88;99870.00;5029426;28;20026;-20
2022/03/03 09:07:28;;;;;;;21.95;13.07;;;;;;;6.17;59.32;99901.44;5029520;28;20080;-20
2022/03/03 09:09:53;;;;;;;22.92;14.05;;;;;;;6.41;58.88;99897.50;5029705;28;20108;-21
2022/03/03 09:12:19;;;;;;;18.45;12.48;;;;;;;6.51;57.97;99913.03;5029917;28;20069;-21
2022/03/03 09:14:44;;;;;;;15.93;11.05;;;;;;;6.53;57.91;99917.13;5029964;28;20417;-20
2022/03/03 09:17:10;;;;;;;17.13;10.93;;;;;;;6.27;58.36;99890.50;5029668;28;20087;-24
2022/03/03 09:19:36;;;;;;;15.45;9.77;;;;;;;6.40;56.86;99917.88;5029836;28;20516;-21
2022/03/03 09:22:03;;;;;;;13.68;8.48;;;;;;;6.32;55.96;99915.38;4995763;28;20029;-21
2022/03/03 09:24:28;;;;;;;16.48;10.35;;;;;;;6.24;57.27;99926.13;5029742;28;20128;-21
2022/03/03 09:26:54;;;;;;;16.63;11.30;;;;;;;6.23;57.34;99903.28;5011654;28;20071;-21
2022/03/03 09:29:20;;;;;;;17.65;9.80;;;;;;;6.13;57.96;99910.78;5029988;28;20773;-20
2022/03/03 09:31:46;;;;;;;16.42;10.48;;;;;;;6.24;56.65;99891.72;5029657;28;20048;-20
2022/03/03 09:34:12;;;;;;;14.10;8.50;;;;;;;6.40;56.26;99907.28;5029763;28;20596;-21
2022/03/03 09:36:37;;;;;;;16.20;10.30;;;;;;;6.51;57.37;99913.03;5011649;28;20024;-21
2022/03/03 09:39:03;;;;;;;12.80;9.32;;;;;;;6.43;55.59;99908.72;5029288;28;20040;-20
2022/03/03 09:41:28;;;;;;;16.52;9.90;;;;;;;6.21;56.30;99921.22;5029336;28;20602;-22
2022/03/03 09:43:54;;;;;;;12.15;8.60;;;;;;;6.34;55.46;99901.97;5029156;28;20038;-20
2022/03/03 09:46:19;;;;;;;16.92;10.82;;;;;;;6.43;56.34;99912.19;4994808;28;20387;-21
2022/03/03 09:48:45;;;;;;;14.10;8.88;;;;;;;6.49;55.44;99909.78;4994984;28;20037;-21
2022/03/03 09:51:10;;;;;;;14.45;9.40;;;;;;;6.60;56.04;99906.59;5010646;28;20041;-21
2022/03/03 09:53:39;;;;;;;17.45;10.65;;;;;;;6.70;55.33;99896.44;5029236;28;20068;-20
2022/03/03 09:56:04;;;;;;;15.23;8.88;;;;;;;6.92;53.97;99898.94;5028933;28;20034;-21
2022/03/03 09:58:30;;;;;;;14.10;8.85;;;;;;;6.70;53.87;99908.84;5011367;28;20085;-20
2022/03/03 10:00:56;;;;;;;17.52;10.85;;;;;;;6.74;55.64;99897.69;5028844;28;20038;-20
2022/03/03 10:03:21;;;;;;;17.40;11.38;;;;;;;7.12;53.82;99902.47;5029127;28;20148;-20
2022/03/03 10:05:51;;;;;;;15.38;9.95;;;;;;;6.93;55.14;99905.91;5029152;28;20033;-21
2022/03/03 10:08:19;;;;;;;17.25;11.43;;;;;;;7.31;54.98;99910.69;5011253;28;20033;-20
2022/03/03 10:10:46;;;;;;;16.52;10.00;;;;;;;7.01;53.93;99897.78;5028641;28;20034;-20
2022/03/03 10:13:16;;;;;;;13.63;9.65;;;;;;;6.97;53.37;99915.09;5028571;28;20132;-20
2022/03/03 10:15:42;;;;;;;17.42;9.85;;;;;;;7.06;53.98;99892.66;5028677;28;20128;-20
2022/03/03 10:18:13;;;;;;;16.35;10.43;;;;;;;7.59;54.21;99906.03;5028919;28;20120;-20
2022/03/03 10:20:47;;;;;;;15.68;9.45;;;;;;;7.62;52.86;99896.81;5027464;28;20033;-20
2022/03/03 10:23:13;;;;;;;15.98;10.80;;;;;;;7.70;52.52;99898.47;5028562;28;20481;-20
2022/03/03 10:25:41;;;;;;;14.00;8.27;;;;;;;7.65;51.37;99899.91;5027227;28;20033;-20
2022/03/03 10:28:11;;;;;;;;;;;;;;;7.66;52.14;99887.44;4995597;28;20485;-20
2022/03/03 10:30:52;;;;;;;15.60;10.15;;;;;;;7.98;50.11;99885.78;5028629;28;19917;-20
2022/03/03 10:33:19;;;;;;;13.35;8.23;;;;;;;8.01;51.23;99882.75;5028401;28;20056;-21
2022/03/03 10:36:19;;;;;;;18.58;10.95;;;;;;;8.15;51.08;99891.50;5028368;28;20131;-20
2022/03/03 10:38:45;;;;;;;17.50;9.73;;;;;;;8.15;48.39;99890.66;4999786;28;20037;-20
2022/03/03 10:41:35;;;;;;;20.40;11.80;;;;;;;8.35;48.10;99883.47;5028073;28;20068;-20
2022/03/03 10:44:05;;;;;;;26.38;16.35;;;;;;;8.31;48.73;99874.28;5028270;28;20056;-21
2022/03/03 10:46:31;;;;;;;19.20;12.55;;;;;;;8.27;50.41;99853.66;5010472;28;20029;-20
2022/03/03 10:48:56;;;;;;;21.05;13.07;;;;;;;8.22;49.91;99873.72;4993802;28;20026;-20
2022/03/03 10:51:24;;;;;;;14.85;10.40;;;;;;;8.43;48.03;99870.00;5010074;28;20077;-21
2022/03/03 10:53:59;;;;;;;15.00;8.52;;;;;;;8.98;47.43;99866.91;5028099;28;20039;-21
2022/03/03 10:56:24;;;;;;;12.75;8.73;;;;;;;9.47;45.37;99869.06;5000107;28;20403;-20
2022/03/03 10:58:52;;;;;;;17.27;9.23;;;;;;;9.99;46.94;99862.47;4989654;28;20117;-20
2022/03/03 11:01:19;;;;;;;12.30;7.70;;;;;;;9.54;45.39;99862.66;5008417;28;20038;-20
2022/03/03 11:03:51;;;;;;;18.17;11.65;;;;;;;9.51;46.29;99865.72;5008267;28;20371;-20
2022/03/03 11:06:21;;;;;;;14.23;9.80;;;;;;;9.95;45.17;99858.59;5008259;28;20030;-21
2022/03/03 11:08:47;;;;;;;24.80;15.90;;;;;;;9.50;45.00;99844.66;4990458;28;20030;-21
2022/03/03 11:11:12;;;;;;;12.85;8.57;;;;;;;9.51;44.33;99860.41;4990498;28;20092;-20
2022/03/03 11:13:38;;;;;;;12.95;7.72;;;;;;;9.55;45.80;99856.28;4990445;28;20050;-20
2022/03/03 11:16:04;;;;;;;37.78;18.55;;;;;;;9.87;46.21;99853.56;4990698;28;20030;-20
2022/03/03 11:18:29;;;;;;;19.08;11.00;;;;;;;9.36;45.76;99852.75;5008900;28;20038;-21
2022/03/03 11:20:55;;;;;;;26.30;14.68;;;;;;;8.79;47.77;99858.00;5009898;28;20029;-20
2022/03/03 11:23:21;;;;;;;16.35;9.93;;;;;;;8.96;47.66;99841.53;5010004;28;20052;-20